Terminal Aerodrome Forecast
Issued by NWS

Home | Current Version | Previous Version | Text Only | Print | Product List | Glossary On
Versions: 1 2 3 4 5 6 7 8 9 10 11 12
000
FTUS44 KLIX 211731
TAFMCB
TAF
KMCB 211731Z 2118/2218 13010KT P6SM SCT020 BKN035
     FM212000 14010KT P6SM VCSH BKN025
      TEMPO 2120/2124 4SM TSRA BKN025CB
     FM220200 14006KT P6SM BKN025 BKN100
     FM220500 15007KT P6SM SCT010 BKN015
     FM221000 15006KT 4SM BR BKN008 BKN020
     FM221400 15008KT P6SM VCSH BKN025 OVC050
     FM221600 17008KT 4SM TSRA BKN025CB OVC050=

USA.gov is the U.S. government's official web portal to all federal, state and local government web resources and services.